Time;durP1;ratioP1;P1;durP2;ratioP2;P2;SDS_P1;SDS_P2;PMS_P1;PMS_P2;Temp;Humidity;BMP_temperature;BMP_pressure;BME280_temperature;BME280_humidity;BME280_pressure;Samples;Min_cycle;Max_cycle;Signal;HPM_P1;HPM_P2
2021/09/04 00:00:48;;;;;;;12.43;8.18;;;15.00;83.50;;;;;;2072663;28;20042;-95
2021/09/04 00:02:11;;;;;;;12.82;8.43;;;15.00;83.50;;;;;;2067508;28;20042;-95
2021/09/04 00:03:30;;;;;;;11.35;7.63;;;14.90;83.50;;;;;;2062072;28;20038;-94
2021/09/04 00:04:50;;;;;;;12.05;8.23;;;15.00;83.60;;;;;;2076432;28;20396;-95
2021/09/04 00:06:09;;;;;;;13.52;8.32;;;15.00;83.60;;;;;;2080176;28;20038;-94
2021/09/04 00:07:30;;;;;;;12.88;8.35;;;14.90;83.60;;;;;;2078937;28;20037;-95
2021/09/04 00:08:50;;;;;;;12.30;8.20;;;14.90;83.60;;;;;;2080998;28;20026;-90
2021/09/04 00:10:10;;;;;;;11.48;8.07;;;14.90;83.60;;;;;;2063513;28;20034;-94
2021/09/04 00:11:30;;;;;;;11.38;7.97;;;14.90;83.60;;;;;;2077492;28;20029;-94
2021/09/04 00:12:49;;;;;;;13.25;8.35;;;14.90;83.70;;;;;;2083393;28;20081;-94
2021/09/04 00:14:09;;;;;;;12.77;7.78;;;14.90;83.70;;;;;;2072735;28;20041;-94
2021/09/04 00:15:28;;;;;;;10.60;7.57;;;14.90;83.70;;;;;;2079236;28;20045;-94
2021/09/04 00:16:48;;;;;;;16.17;8.85;;;14.90;83.80;;;;;;2068800;28;20039;-94
2021/09/04 00:18:07;;;;;;;12.20;8.25;;;14.90;83.90;;;;;;2060807;28;20061;-93
2021/09/04 00:19:26;;;;;;;11.68;7.75;;;14.90;83.80;;;;;;2067983;28;20524;-94
2021/09/04 00:20:46;;;;;;;12.55;7.93;;;14.80;83.80;;;;;;2075892;28;20041;-94
2021/09/04 00:22:05;;;;;;;11.45;7.72;;;14.80;83.80;;;;;;2072517;28;20539;-95
2021/09/04 00:23:24;;;;;;;11.30;7.72;;;14.80;83.90;;;;;;2068562;28;20038;-93
2021/09/04 00:24:45;;;;;;;11.98;7.53;;;14.80;83.90;;;;;;2055229;28;20043;-96
2021/09/04 00:26:04;;;;;;;13.70;9.07;;;14.80;84.00;;;;;;2061288;28;20054;-95
2021/09/04 00:27:25;;;;;;;13.05;8.75;;;14.80;84.70;;;;;;2057545;28;20042;-96
2021/09/04 00:28:44;;;;;;;;;;;14.70;84.10;;;;;;2067503;28;20120;-96
2021/09/04 00:30:04;;;;;;;14.85;9.00;;;14.70;84.20;;;;;;2061549;28;19956;-94
2021/09/04 00:31:23;;;;;;;13.38;8.77;;;14.70;84.20;;;;;;2065360;28;20038;-95
2021/09/04 00:32:43;;;;;;;11.27;8.10;;;14.60;84.20;;;;;;2069791;28;20679;-94
2021/09/04 00:34:02;;;;;;;11.57;7.78;;;14.60;84.30;;;;;;2067089;28;20085;-94
2021/09/04 00:35:21;;;;;;;13.05;8.18;;;14.60;84.30;;;;;;2053005;28;20131;-94
2021/09/04 00:36:41;;;;;;;12.27;8.25;;;14.60;84.30;;;;;;2059037;28;20710;-94
2021/09/04 00:38:00;;;;;;;12.95;8.95;;;14.60;84.30;;;;;;2060642;28;20042;-93
2021/09/04 00:39:19;;;;;;;12.40;8.20;;;14.60;84.40;;;;;;2059599;28;20046;-93
2021/09/04 00:40:38;;;;;;;13.88;8.95;;;14.60;84.50;;;;;;2071226;28;20041;-94
2021/09/04 00:41:57;;;;;;;11.55;7.97;;;14.50;84.50;;;;;;2056530;28;20047;-94
2021/09/04 00:43:16;;;;;;;11.77;8.48;;;14.50;84.50;;;;;;2062378;28;20070;-96
2021/09/04 00:44:36;;;;;;;13.00;8.48;;;14.50;84.60;;;;;;2061037;28;20046;-94
2021/09/04 00:46:06;;;;;;;12.30;8.00;;;14.50;84.60;;;;;;2049749;28;20465;-94
2021/09/04 00:47:26;;;;;;;11.38;7.70;;;14.50;84.60;;;;;;2055854;28;20054;-93
2021/09/04 00:48:45;;;;;;;13.63;8.90;;;14.50;84.60;;;;;;2063512;28;20062;-96
2021/09/04 00:50:04;;;;;;;13.50;8.77;;;14.50;84.70;;;;;;2061560;28;20038;-94
2021/09/04 00:51:24;;;;;;;12.40;7.90;;;14.50;84.70;;;;;;2066785;28;20058;-95
2021/09/04 00:52:43;;;;;;;13.50;8.57;;;14.40;84.70;;;;;;2062544;28;20425;-96
2021/09/04 00:54:04;;;;;;;13.50;8.52;;;14.40;84.80;;;;;;2051241;28;20042;-94
2021/09/04 00:55:24;;;;;;;16.70;8.52;;;14.40;84.80;;;;;;2064475;28;20038;-95
2021/09/04 00:56:43;;;;;;;10.85;7.35;;;14.40;84.80;;;;;;2078520;28;20077;-94
2021/09/04 00:58:04;;;;;;;13.55;7.78;;;14.40;84.80;;;;;;2082687;28;20033;-95
2021/09/04 00:59:25;;;;;;;11.75;7.57;;;14.40;84.90;;;;;;2065222;28;20042;-94
2021/09/04 01:00:50;;;;;;;12.63;7.60;;;14.40;84.90;;;;;;2076154;28;20034;-94
2021/09/04 01:02:09;;;;;;;9.75;6.63;;;14.40;85.50;;;;;;2074424;28;20050;-95
2021/09/04 01:03:28;;;;;;;10.63;7.30;;;14.40;84.90;;;;;;2069159;28;20038;-94
2021/09/04 01:04:47;;;;;;;14.48;8.25;;;14.40;84.90;;;;;;2070989;28;20082;-95
2021/09/04 01:06:07;;;;;;;12.55;7.55;;;14.40;84.90;;;;;;2058835;28;20513;-93
2021/09/04 01:07:27;;;;;;;11.63;7.28;;;14.40;84.90;;;;;;2059789;28;20512;-94
2021/09/04 01:08:46;;;;;;;12.20;7.60;;;14.40;85.00;;;;;;2070617;28;20102;-94
2021/09/04 01:10:08;;;;;;;10.18;6.70;;;14.40;84.90;;;;;;2060155;28;20039;-94
2021/09/04 01:11:29;;;;;;;12.20;8.27;;;14.30;84.90;;;;;;2060771;28;20121;-95
2021/09/04 01:12:48;;;;;;;;;;;14.40;85.00;;;;;;2067751;28;20027;-94
2021/09/04 01:14:08;;;;;;;11.73;6.82;;;14.30;84.90;;;;;;2076841;28;20444;-93
2021/09/04 01:15:27;;;;;;;13.57;8.00;;;14.30;84.90;;;;;;2069667;28;20038;-94
2021/09/04 01:16:46;;;;;;;9.95;7.30;;;14.30;85.60;;;;;;2069963;28;20045;-94
2021/09/04 01:18:06;;;;;;;11.43;7.45;;;14.30;85.60;;;;;;2070388;28;20120;-95
2021/09/04 01:19:25;;;;;;;11.55;7.43;;;14.30;85.60;;;;;;2062212;28;20046;-94
2021/09/04 01:20:44;;;;;;;11.30;7.38;;;14.30;85.10;;;;;;2064887;28;20663;-94
2021/09/04 01:22:04;;;;;;;10.18;6.78;;;14.20;85.10;;;;;;2074133;28;20046;-93
2021/09/04 01:23:23;;;;;;;12.63;8.07;;;14.30;85.20;;;;;;2078046;28;20041;-95
2021/09/04 01:24:48;;;;;;;11.40;7.47;;;14.20;85.20;;;;;;2062468;28;20045;-95
2021/09/04 01:26:11;;;;;;;11.15;7.88;;;14.20;85.30;;;;;;2073716;28;20034;-94
2021/09/04 01:27:32;;;;;;;11.45;7.35;;;14.20;85.20;;;;;;2062996;28;20504;-94
2021/09/04 01:28:51;;;;;;;;;;;14.20;85.90;;;;;;2070831;28;20500;-94
2021/09/04 01:30:10;;;;;;;12.07;7.15;;;14.20;85.20;;;;;;2062014;28;19913;-94
2021/09/04 01:31:29;;;;;;;10.35;6.72;;;14.20;85.20;;;;;;2062460;28;20054;-94
2021/09/04 01:32:49;;;;;;;11.57;7.00;;;14.20;85.20;;;;;;2072611;28;20038;-95
2021/09/04 01:34:08;;;;;;;10.35;6.47;;;14.20;85.20;;;;;;2059273;28;20131;-95
2021/09/04 01:35:27;;;;;;;9.15;6.32;;;14.20;85.20;;;;;;2065406;28;20039;-94
2021/09/04 01:36:46;;;;;;;11.23;7.30;;;14.20;85.30;;;;;;2052809;28;20048;-94
2021/09/04 01:38:06;;;;;;;12.50;6.80;;;14.20;85.30;;;;;;2071432;28;20478;-96
2021/09/04 01:39:25;;;;;;;11.10;7.47;;;14.20;85.30;;;;;;2070925;28;20042;-95
2021/09/04 01:40:44;;;;;;;10.75;7.15;;;14.20;85.30;;;;;;2081306;28;20128;-95
2021/09/04 01:42:04;;;;;;;10.55;6.95;;;14.10;85.30;;;;;;2083894;28;20081;-93
2021/09/04 01:43:22;;;;;;;11.35;7.43;;;14.10;85.40;;;;;;2074131;28;20125;-94
2021/09/04 01:44:42;;;;;;;11.25;6.97;;;14.10;85.40;;;;;;2071712;28;20053;-95
2021/09/04 01:46:01;;;;;;;12.63;6.70;;;14.10;85.40;;;;;;2063962;28;20038;-95
2021/09/04 01:47:20;;;;;;;11.30;6.70;;;14.10;85.50;;;;;;2061016;28;20050;-94
2021/09/04 01:48:39;;;;;;;11.43;6.78;;;14.10;85.50;;;;;;2053254;28;20035;-94
2021/09/04 01:49:59;;;;;;;14.50;7.43;;;14.10;85.60;;;;;;2055760;28;20454;-95
2021/09/04 01:51:18;;;;;;;10.50;7.30;;;14.10;85.60;;;;;;2068120;28;20034;-93
2021/09/04 01:52:38;;;;;;;10.80;6.95;;;14.10;85.60;;;;;;2079569;28;20025;-95
2021/09/04 01:53:57;;;;;;;12.90;7.10;;;14.10;85.70;;;;;;2074989;28;20072;-94
2021/09/04 01:55:19;;;;;;;11.40;7.20;;;14.10;85.70;;;;;;2079556;28;20029;-94
2021/09/04 01:56:39;;;;;;;12.10;6.90;;;14.10;85.70;;;;;;2075224;28;20041;-93
2021/09/04 01:57:58;;;;;;;10.10;6.60;;;14.10;86.40;;;;;;2065053;28;20039;-93
2021/09/04 01:59:17;;;;;;;10.95;6.85;;;14.00;85.70;;;;;;2075710;28;20025;-93
2021/09/04 02:00:36;;;;;;;11.68;6.85;;;14.10;85.80;;;;;;2081697;28;20098;-88
2021/09/04 02:01:55;;;;;;;10.93;6.70;;;14.10;85.80;;;;;;2071517;28;20054;-94
2021/09/04 02:03:15;;;;;;;8.88;6.00;;;14.10;85.80;;;;;;2065234;28;20428;-93
2021/09/04 02:04:34;;;;;;;8.70;5.90;;;14.10;85.80;;;;;;2071640;28;20074;-94
2021/09/04 02:05:53;;;;;;;10.98;7.03;;;14.10;85.70;;;;;;2071568;28;20042;-94
2021/09/04 02:07:13;;;;;;;10.55;6.78;;;14.10;85.70;;;;;;2067909;28;20085;-94
2021/09/04 02:08:32;;;;;;;13.05;7.10;;;14.10;85.70;;;;;;2063026;28;20039;-94
2021/09/04 02:09:52;;;;;;;9.13;6.25;;;14.10;85.70;;;;;;2060124;28;20074;-93
2021/09/04 02:11:11;;;;;;;10.30;6.55;;;14.10;85.80;;;;;;2066658;28;20034;-94
2021/09/04 02:12:30;;;;;;;10.32;6.57;;;14.10;85.80;;;;;;2079793;28;20457;-94
2021/09/04 02:13:49;;;;;;;10.07;6.75;;;14.00;85.70;;;;;;2075157;28;20046;-94
2021/09/04 02:15:09;;;;;;;15.00;8.07;;;14.00;85.70;;;;;;2075490;28;20046;-94
2021/09/04 02:16:29;;;;;;;11.48;7.32;;;14.00;85.80;;;;;;2064280;28;20081;-94
2021/09/04 02:17:48;;;;;;;11.70;7.60;;;14.00;85.80;;;;;;2068548;28;20062;-94
2021/09/04 02:19:08;;;;;;;11.75;7.55;;;14.00;85.90;;;;;;2065649;28;20042;-95
2021/09/04 02:20:27;;;;;;;11.52;7.68;;;13.90;85.90;;;;;;2073800;28;20021;-94
2021/09/04 02:21:47;;;;;;;12.00;7.88;;;13.90;86.00;;;;;;2058137;28;20054;-95
2021/09/04 02:23:06;;;;;;;12.93;8.45;;;13.80;86.10;;;;;;2059771;28;20046;-95
2021/09/04 02:24:25;;;;;;;17.30;9.63;;;13.80;86.20;;;;;;2073802;28;20033;-95
2021/09/04 02:25:45;;;;;;;13.07;9.13;;;13.80;86.30;;;;;;2057521;28;20038;-93
2021/09/04 02:27:04;;;;;;;14.63;9.07;;;13.70;86.40;;;;;;2057264;28;20039;-95
2021/09/04 02:28:24;;;;;;;14.30;8.80;;;13.70;86.50;;;;;;2060527;28;20038;-94
2021/09/04 02:29:43;;;;;;;13.98;9.02;;;13.70;86.60;;;;;;2060117;28;20487;-94
2021/09/04 02:31:03;;;;;;;16.70;9.63;;;13.70;86.60;;;;;;2061159;28;20043;-95
2021/09/04 02:32:22;;;;;;;12.77;8.90;;;13.70;86.70;;;;;;2063909;28;20050;-96
2021/09/04 02:33:41;;;;;;;16.98;9.75;;;13.70;86.80;;;;;;2062438;28;20030;-95
2021/09/04 02:35:00;;;;;;;14.00;8.93;;;13.70;86.80;;;;;;2066137;28;20042;-93
2021/09/04 02:36:20;;;;;;;16.02;9.93;;;13.70;86.80;;;;;;2066314;28;20031;-95
2021/09/04 02:37:39;;;;;;;15.32;9.32;;;13.70;86.80;;;;;;2080038;28;20041;-93
2021/09/04 02:38:58;;;;;;;14.88;9.13;;;13.70;86.90;;;;;;2059993;28;20035;-94
2021/09/04 02:40:18;;;;;;;16.00;10.40;;;13.70;86.90;;;;;;2058543;28;20570;-95
2021/09/04 02:41:37;;;;;;;16.35;10.05;;;13.70;86.90;;;;;;2070183;28;20042;-94
2021/09/04 02:42:56;;;;;;;17.98;10.32;;;13.70;86.90;;;;;;2066922;28;20043;-94
2021/09/04 02:44:16;;;;;;;20.08;10.10;;;13.70;87.00;;;;;;2055355;28;20074;-93
2021/09/04 02:45:35;;;;;;;14.35;9.38;;;13.70;87.00;;;;;;2060906;28;20042;-94
2021/09/04 02:46:54;;;;;;;15.13;9.50;;;13.70;87.00;;;;;;2056221;28;20050;-94
2021/09/04 02:48:13;;;;;;;13.90;8.73;;;13.70;87.00;;;;;;2064310;28;20035;-95
2021/09/04 02:49:33;;;;;;;14.57;9.32;;;13.70;87.00;;;;;;2054652;28;20039;-87
2021/09/04 02:50:52;;;;;;;12.43;8.02;;;13.70;87.00;;;;;;2061588;28;20895;-88
2021/09/04 02:52:11;;;;;;;16.75;9.25;;;13.70;87.00;;;;;;2077349;28;20038;-94
2021/09/04 02:53:30;;;;;;;14.57;8.40;;;13.70;87.00;;;;;;2064929;28;20043;-94
2021/09/04 02:54:50;;;;;;;13.45;8.60;;;13.80;87.00;;;;;;2059633;28;20046;-94
2021/09/04 02:56:09;;;;;;;14.13;9.80;;;13.80;87.00;;;;;;2055865;28;20058;-94
2021/09/04 02:57:28;;;;;;;14.73;9.68;;;13.80;87.00;;;;;;2047514;29;20055;-95
2021/09/04 02:58:47;;;;;;;15.65;9.10;;;13.80;87.00;;;;;;2068253;28;20045;-94
2021/09/04 03:00:07;;;;;;;15.48;9.75;;;13.70;87.00;;;;;;2071384;28;20050;-94
2021/09/04 03:01:26;;;;;;;15.90;9.25;;;13.70;87.20;;;;;;2066080;28;20047;-94
2021/09/04 03:02:48;;;;;;;14.18;8.98;;;13.70;87.20;;;;;;2057174;28;20080;-95
2021/09/04 03:04:07;;;;;;;15.45;9.77;;;13.70;87.30;;;;;;2073301;28;20038;-96
2021/09/04 03:05:26;;;;;;;18.20;10.68;;;13.70;87.40;;;;;;2083455;28;20029;-94
2021/09/04 03:06:45;;;;;;;14.32;9.10;;;13.70;87.40;;;;;;2067392;28;20038;-94
2021/09/04 03:08:05;;;;;;;12.75;9.02;;;13.60;87.40;;;;;;2064849;28;20046;-96
2021/09/04 03:09:24;;;;;;;14.95;9.00;;;13.70;87.50;;;;;;2067981;28;20514;-94
2021/09/04 03:10:43;;;;;;;15.40;9.20;;;13.70;87.50;;;;;;2079114;28;20037;-94
2021/09/04 03:12:03;;;;;;;15.18;9.07;;;13.70;87.50;;;;;;2068922;28;20176;-94
2021/09/04 03:13:23;;;;;;;14.88;9.25;;;13.70;87.50;;;;;;2062887;28;20460;-95
2021/09/04 03:14:42;;;;;;;12.52;8.75;;;13.70;87.50;;;;;;2071456;28;20038;-95
2021/09/04 03:16:01;;;;;;;14.50;9.30;;;13.70;87.50;;;;;;2065160;28;20034;-94
2021/09/04 03:17:21;;;;;;;16.90;9.65;;;13.70;87.50;;;;;;2071263;28;20038;-95
2021/09/04 03:18:40;;;;;;;16.08;9.77;;;13.70;87.60;;;;;;2063089;28;20078;-95
2021/09/04 03:19:59;;;;;;;16.45;10.07;;;13.70;87.70;;;;;;2053552;28;20050;-94
2021/09/04 03:21:19;;;;;;;15.38;9.60;;;13.70;87.70;;;;;;2075661;28;20515;-94
2021/09/04 03:22:38;;;;;;;18.25;9.90;;;13.70;87.70;;;;;;2075568;28;20041;-96
2021/09/04 03:23:57;;;;;;;14.15;10.02;;;13.70;87.80;;;;;;2079743;28;20388;-93
2021/09/04 03:25:16;;;;;;;17.27;10.88;;;13.70;87.80;;;;;;2073716;28;20046;-94
2021/09/04 03:26:36;;;;;;;14.82;9.73;;;13.70;87.80;;;;;;2072863;28;20488;-93
2021/09/04 03:27:55;;;;;;;14.23;9.30;;;13.70;87.90;;;;;;2073552;28;20404;-94
2021/09/04 03:29:14;;;;;;;16.75;11.32;;;13.70;87.90;;;;;;2066156;28;20109;-94
2021/09/04 03:30:34;;;;;;;16.20;10.70;;;13.80;88.00;;;;;;2059258;28;20046;-93
2021/09/04 03:31:53;;;;;;;12.95;9.32;;;13.70;87.90;;;;;;2066267;28;20477;-93
2021/09/04 03:33:13;;;;;;;14.15;9.25;;;13.70;88.00;;;;;;2056608;28;20068;-94
2021/09/04 03:34:32;;;;;;;16.60;10.57;;;13.70;88.00;;;;;;2055605;28;20034;-95
2021/09/04 03:35:51;;;;;;;14.73;9.40;;;13.80;88.10;;;;;;2066080;28;20058;-94
2021/09/04 03:37:10;;;;;;;14.10;9.50;;;13.80;88.10;;;;;;2058522;28;20034;-94
2021/09/04 03:38:31;;;;;;;15.18;9.35;;;13.80;88.00;;;;;;2062097;28;20042;-94
2021/09/04 03:39:50;;;;;;;12.50;8.57;;;13.80;88.00;;;;;;2068171;28;20069;-94
2021/09/04 03:41:09;;;;;;;15.55;9.30;;;13.90;88.10;;;;;;2070560;28;20058;-93
2021/09/04 03:42:29;;;;;;;13.20;8.80;;;13.90;88.10;;;;;;2062965;28;20047;-94
2021/09/04 03:43:48;;;;;;;14.75;9.35;;;13.80;88.00;;;;;;2077240;28;20113;-94
2021/09/04 03:45:07;;;;;;;14.85;9.65;;;13.90;88.10;;;;;;2083349;28;20111;-93
2021/09/04 03:46:26;;;;;;;15.02;9.95;;;13.90;88.20;;;;;;2074688;28;20026;-94
2021/09/04 03:47:46;;;;;;;13.52;9.05;;;13.80;88.10;;;;;;2078659;28;20037;-94
2021/09/04 03:49:05;;;;;;;14.82;10.05;;;13.90;88.20;;;;;;2078989;28;20037;-95
2021/09/04 03:50:24;;;;;;;15.30;10.10;;;13.90;88.30;;;;;;2066045;28;20042;-95
2021/09/04 03:51:43;;;;;;;16.00;10.95;;;13.80;88.30;;;;;;2048805;28;20425;-94
2021/09/04 03:53:02;;;;;;;16.48;10.07;;;13.80;88.40;;;;;;2064877;28;20034;-94
2021/09/04 03:54:22;;;;;;;14.63;10.10;;;13.80;88.50;;;;;;2079565;28;20038;-94
2021/09/04 03:55:41;;;;;;;15.35;10.02;;;13.80;88.60;;;;;;2083126;28;20045;-94
2021/09/04 03:57:00;;;;;;;14.32;9.80;;;13.80;88.70;;;;;;2058097;28;20070;-95
2021/09/04 03:58:19;;;;;;;14.13;9.55;;;13.80;88.80;;;;;;2066991;28;20469;-94
2021/09/04 03:59:38;;;;;;;14.20;9.25;;;13.80;88.80;;;;;;2066608;28;20034;-94
2021/09/04 04:00:57;;;;;;;14.18;9.75;;;13.70;88.90;;;;;;2081920;28;20049;-94
2021/09/04 04:02:17;;;;;;;13.63;9.30;;;13.80;88.90;;;;;;2085374;28;20053;-92
2021/09/04 04:03:36;;;;;;;14.15;9.57;;;13.70;88.90;;;;;;2080571;28;20034;-87
2021/09/04 04:04:55;;;;;;;12.98;9.50;;;13.70;88.90;;;;;;2080462;28;20026;-93
2021/09/04 04:06:15;;;;;;;14.43;9.68;;;13.80;89.00;;;;;;2079365;28;20045;-94
2021/09/04 04:07:34;;;;;;;16.65;10.77;;;13.80;89.00;;;;;;2073794;28;20042;-94
2021/09/04 04:08:57;;;;;;;11.40;8.27;;;13.80;89.10;;;;;;2082532;28;20431;-94
2021/09/04 04:10:16;;;;;;;15.98;9.40;;;13.80;89.10;;;;;;2057910;28;20043;-94
2021/09/04 04:11:35;;;;;;;14.73;9.60;;;13.80;89.10;;;;;;2067745;28;20038;-94
2021/09/04 04:12:54;;;;;;;15.75;9.88;;;13.80;89.10;;;;;;2056648;28;20066;-94
2021/09/04 04:14:14;;;;;;;11.77;8.10;;;13.80;89.10;;;;;;2062782;28;20117;-93
2021/09/04 04:15:33;;;;;;;13.02;8.70;;;13.80;89.10;;;;;;2053766;28;20071;-94
2021/09/04 04:16:52;;;;;;;10.63;7.38;;;13.80;89.10;;;;;;2063830;28;20046;-95
2021/09/04 04:18:12;;;;;;;12.48;8.30;;;13.80;89.70;;;;;;2057542;28;20039;-94
2021/09/04 04:19:31;;;;;;;13.07;8.55;;;13.90;89.10;;;;;;2057608;28;20023;-95
2021/09/04 04:20:50;;;;;;;13.25;8.70;;;13.90;89.00;;;;;;2063225;28;20046;-94
2021/09/04 04:22:09;;;;;;;12.00;7.97;;;13.90;89.00;;;;;;2049054;28;20047;-94
2021/09/04 04:23:29;;;;;;;13.63;8.95;;;13.90;89.00;;;;;;2052866;28;20051;-94
2021/09/04 04:24:48;;;;;;;12.93;8.40;;;13.90;89.00;;;;;;2061977;28;20517;-95
2021/09/04 04:26:07;;;;;;;11.45;7.82;;;13.90;89.10;;;;;;2064903;28;20034;-93
2021/09/04 04:27:26;;;;;;;13.77;9.20;;;13.90;89.10;;;;;;2067079;28;20038;-94
2021/09/04 04:28:45;;;;;;;13.40;8.88;;;13.90;89.80;;;;;;2075835;28;20421;-94
2021/09/04 04:30:06;;;;;;;12.77;9.18;;;13.90;89.30;;;;;;2073927;28;20112;-95
2021/09/04 04:31:25;;;;;;;13.88;9.50;;;13.90;89.30;;;;;;2059267;28;20042;-96
2021/09/04 04:32:45;;;;;;;14.20;9.63;;;13.90;89.40;;;;;;2054543;28;20129;-94
2021/09/04 04:34:05;;;;;;;15.55;9.73;;;13.80;89.40;;;;;;2056187;28;20043;-94
2021/09/04 04:35:25;;;;;;;14.57;8.98;;;13.90;89.50;;;;;;2077622;28;20084;-94
2021/09/04 04:36:44;;;;;;;15.00;9.00;;;13.80;89.40;;;;;;2071272;28;20536;-93
2021/09/04 04:38:03;;;;;;;12.68;8.60;;;13.80;89.50;;;;;;2069715;28;20121;-93
2021/09/04 04:39:22;;;;;;;11.70;8.10;;;13.80;89.60;;;;;;2060770;28;20238;-93
2021/09/04 04:40:41;;;;;;;11.15;7.82;;;13.80;89.60;;;;;;2061473;28;20034;-94
2021/09/04 04:42:01;;;;;;;10.48;7.18;;;13.80;89.60;;;;;;2075675;28;20034;-94
2021/09/04 04:43:20;;;;;;;12.68;7.93;;;13.90;89.70;;;;;;2067603;28;20066;-94
2021/09/04 04:44:40;;;;;;;12.10;7.53;;;13.90;89.60;;;;;;2079105;28;20041;-93
2021/09/04 04:45:59;;;;;;;12.65;8.57;;;13.90;89.50;;;;;;2073600;28;20122;-93
2021/09/04 04:47:18;;;;;;;12.10;7.88;;;13.90;90.00;;;;;;2056072;28;20117;-94
2021/09/04 04:48:38;;;;;;;12.52;8.10;;;13.90;89.40;;;;;;2061617;28;20531;-93
2021/09/04 04:49:57;;;;;;;12.18;8.10;;;13.90;89.40;;;;;;2068527;28;20038;-94
2021/09/04 04:51:16;;;;;;;12.73;7.85;;;13.90;89.40;;;;;;2069970;28;20439;-93
2021/09/04 04:52:36;;;;;;;12.45;8.23;;;14.00;90.00;;;;;;2054056;28;20046;-94
2021/09/04 04:53:55;;;;;;;13.52;8.10;;;14.00;89.50;;;;;;2057935;28;20046;-94
2021/09/04 04:55:16;;;;;;;13.30;8.15;;;14.00;89.40;;;;;;2055943;28;20046;-96
2021/09/04 04:56:34;;;;;;;12.35;8.05;;;14.00;89.50;;;;;;2065321;28;20037;-94
2021/09/04 04:57:54;;;;;;;14.85;8.98;;;14.00;89.50;;;;;;2060240;28;20054;-93
2021/09/04 04:59:13;;;;;;;12.63;8.65;;;13.90;89.50;;;;;;2058574;28;20042;-94
2021/09/04 05:00:32;;;;;;;12.23;8.05;;;14.00;89.60;;;;;;2049290;28;20038;-94
2021/09/04 05:01:51;;;;;;;14.10;9.02;;;14.00;90.10;;;;;;2053726;28;20130;-94
2021/09/04 05:03:12;;;;;;;13.25;8.77;;;14.00;90.10;;;;;;2062501;28;20129;-94
2021/09/04 05:04:31;;;;;;;12.07;8.25;;;14.00;89.70;;;;;;2065395;28;20041;-94
2021/09/04 05:05:51;;;;;;;17.10;9.85;;;14.00;90.10;;;;;;2068177;28;20042;-95
2021/09/04 05:07:10;;;;;;;15.80;9.63;;;13.90;89.60;;;;;;2071092;28;20042;-93
2021/09/04 05:08:29;;;;;;;13.50;9.77;;;13.90;89.60;;;;;;2058877;28;20039;-93
2021/09/04 05:09:49;;;;;;;15.63;10.27;;;14.00;89.80;;;;;;2059092;28;20042;-94
2021/09/04 05:11:08;;;;;;;14.15;8.93;;;13.90;89.80;;;;;;2067357;28;20046;-95
2021/09/04 05:12:27;;;;;;;13.48;9.23;;;13.90;89.80;;;;;;2055378;28;20469;-96
2021/09/04 05:13:47;;;;;;;13.48;9.15;;;13.90;89.80;;;;;;2055298;28;20050;-96
2021/09/04 05:15:06;;;;;;;12.73;8.85;;;13.90;89.90;;;;;;2051066;28;20122;-94
2021/09/04 05:16:25;;;;;;;13.73;9.40;;;13.90;89.90;;;;;;2054979;28;20034;-94
2021/09/04 05:17:45;;;;;;;16.50;9.85;;;13.90;90.00;;;;;;2058827;28;20117;-93
2021/09/04 05:19:04;;;;;;;14.52;9.57;;;13.90;90.00;;;;;;2068991;28;20073;-95
2021/09/04 05:20:24;;;;;;;16.10;10.20;;;13.90;89.90;;;;;;2070531;28;20034;-92
2021/09/04 05:21:43;;;;;;;15.82;9.73;;;13.90;89.90;;;;;;2070278;28;20325;-94
2021/09/04 05:23:02;;;;;;;14.82;10.07;;;13.90;90.00;;;;;;2077248;28;20089;-94
2021/09/04 05:24:22;;;;;;;14.80;9.88;;;13.90;90.00;;;;;;2062961;28;20043;-93
2021/09/04 05:25:41;;;;;;;13.48;9.20;;;13.90;90.00;;;;;;2060979;28;20121;-93
2021/09/04 05:27:00;;;;;;;13.63;8.85;;;13.90;90.00;;;;;;2073570;28;20038;-94
2021/09/04 05:28:20;;;;;;;14.27;9.65;;;13.90;90.00;;;;;;2065698;28;20105;-96
2021/09/04 05:29:39;;;;;;;15.82;10.00;;;13.90;90.00;;;;;;2045087;28;20055;-94
2021/09/04 05:31:00;;;;;;;12.05;8.82;;;13.90;90.00;;;;;;2055720;28;20038;-94
2021/09/04 05:32:23;;;;;;;13.65;8.95;;;13.90;90.00;;;;;;2068882;28;20140;-94
2021/09/04 05:33:42;;;;;;;13.65;9.18;;;13.90;90.00;;;;;;2048701;28;20482;-95
2021/09/04 05:35:01;;;;;;;14.15;9.35;;;13.90;90.00;;;;;;2062667;28;20035;-95
2021/09/04 05:36:20;;;;;;;14.82;9.48;;;14.00;90.00;;;;;;2047691;29;20032;-93
2021/09/04 05:37:42;;;;;;;15.85;9.38;;;13.90;90.00;;;;;;2066975;28;20026;-94
2021/09/04 05:39:01;;;;;;;15.45;9.23;;;13.90;90.00;;;;;;2070939;28;20086;-95
2021/09/04 05:40:21;;;;;;;11.93;8.50;;;13.90;90.00;;;;;;2073945;28;20034;-94
2021/09/04 05:41:40;;;;;;;14.60;8.95;;;13.90;90.00;;;;;;2062776;28;20046;-94
2021/09/04 05:42:59;;;;;;;12.63;8.68;;;14.00;90.00;;;;;;2064074;28;20070;-94
2021/09/04 05:44:18;;;;;;;15.00;9.85;;;14.00;90.00;;;;;;2059722;28;20111;-95
2021/09/04 05:45:38;;;;;;;16.77;9.48;;;14.00;90.00;;;;;;2067148;28;20477;-95
2021/09/04 05:46:57;;;;;;;12.93;9.35;;;14.10;90.00;;;;;;2068273;28;20046;-95
2021/09/04 05:48:16;;;;;;;13.57;8.98;;;14.10;89.90;;;;;;2068526;28;20034;-95
2021/09/04 05:49:36;;;;;;;15.98;9.93;;;14.10;89.90;;;;;;2073894;28;20026;-94
2021/09/04 05:50:55;;;;;;;13.30;9.10;;;14.10;89.80;;;;;;2067304;28;20405;-94
2021/09/04 05:52:14;;;;;;;15.85;9.00;;;14.10;89.80;;;;;;2049891;28;20095;-95
2021/09/04 05:53:36;;;;;;;12.32;8.43;;;14.10;89.80;;;;;;2065140;28;20074;-96
2021/09/04 05:54:56;;;;;;;12.75;8.38;;;14.10;89.80;;;;;;2056736;28;20059;-95
2021/09/04 05:56:15;;;;;;;16.95;9.43;;;14.10;89.80;;;;;;2064820;28;20046;-95
2021/09/04 05:57:34;;;;;;;13.65;9.40;;;14.10;89.80;;;;;;2071493;28;20124;-95
2021/09/04 05:58:53;;;;;;;14.80;9.10;;;14.10;89.80;;;;;;2062807;28;20046;-95
2021/09/04 06:00:13;;;;;;;13.55;9.07;;;14.20;89.80;;;;;;2059399;28;20046;-96
2021/09/04 06:01:33;;;;;;;14.45;9.20;;;14.20;89.70;;;;;;2060566;28;20046;-94
2021/09/04 06:02:52;;;;;;;14.52;9.75;;;14.20;89.70;;;;;;2074263;28;20053;-96
2021/09/04 06:04:11;;;;;;;18.15;10.43;;;14.20;89.70;;;;;;2061703;28;20034;-95
2021/09/04 06:05:31;;;;;;;15.43;9.85;;;14.10;89.70;;;;;;2062096;28;20039;-95
2021/09/04 06:06:51;;;;;;;14.55;9.52;;;14.10;89.70;;;;;;2065000;28;20035;-96
2021/09/04 06:08:10;;;;;;;15.70;10.15;;;14.10;89.80;;;;;;2068803;28;20030;-95
2021/09/04 06:09:29;;;;;;;17.92;10.85;;;14.10;89.80;;;;;;2072063;28;20042;-91
2021/09/04 06:10:49;;;;;;;15.50;10.93;;;14.10;89.80;;;;;;2067052;28;20046;-86
2021/09/04 06:12:08;;;;;;;15.57;10.15;;;14.10;89.80;;;;;;2064917;28;20245;-93
2021/09/04 06:13:27;;;;;;;15.30;10.05;;;14.10;89.80;;;;;;2079308;28;20069;-95
2021/09/04 06:14:46;;;;;;;16.35;10.25;;;14.20;89.70;;;;;;2074515;28;20041;-93
2021/09/04 06:16:05;;;;;;;16.92;10.18;;;14.20;89.60;;;;;;2078136;28;20046;-92
2021/09/04 06:17:26;;;;;;;14.77;9.95;;;14.20;89.60;;;;;;2057236;28;20046;-94
2021/09/04 06:18:45;;;;;;;14.75;10.38;;;14.20;89.60;;;;;;2063755;28;20046;-94
2021/09/04 06:20:06;;;;;;;14.55;9.95;;;14.20;89.50;;;;;;2070321;28;20042;-94
2021/09/04 06:21:25;;;;;;;;;;;14.20;89.50;;;;;;2066823;28;20039;-95
2021/09/04 06:22:45;;;;;;;16.10;9.75;;;14.10;89.40;;;;;;2068596;28;19976;-93
2021/09/04 06:24:04;;;;;;;16.10;10.02;;;14.20;89.40;;;;;;2072055;28;20034;-93
2021/09/04 06:25:23;;;;;;;16.15;10.20;;;14.20;89.40;;;;;;2074580;28;20038;-93
2021/09/04 06:26:42;;;;;;;13.23;9.35;;;14.20;89.30;;;;;;2075028;28;20074;-93
2021/09/04 06:28:01;;;;;;;16.40;10.02;;;14.20;89.30;;;;;;2083393;28;20124;-94
2021/09/04 06:29:20;;;;;;;13.57;8.85;;;14.20;89.30;;;;;;2083173;28;20033;-93
2021/09/04 06:30:40;;;;;;;16.90;9.85;;;14.20;89.20;;;;;;2058854;28;20055;-93
2021/09/04 06:31:59;;;;;;;17.13;11.15;;;14.30;89.30;;;;;;2063902;28;20424;-93
2021/09/04 06:33:18;;;;;;;16.95;10.15;;;14.30;89.20;;;;;;2076746;28;20053;-92
2021/09/04 06:34:40;;;;;;;18.55;10.73;;;14.30;89.10;;;;;;2066299;28;20450;-93
2021/09/04 06:35:59;;;;;;;14.30;9.68;;;14.30;89.10;;;;;;2069342;28;20132;-92
2021/09/04 06:37:18;;;;;;;15.85;10.07;;;14.30;89.10;;;;;;2063036;28;20030;-96
2021/09/04 06:38:38;;;;;;;18.20;11.57;;;14.30;89.00;;;;;;2068748;28;20038;-95
2021/09/04 06:39:57;;;;;;;17.92;11.60;;;14.30;89.00;;;;;;2076914;28;20046;-96
2021/09/04 06:41:16;;;;;;;18.80;11.68;;;14.30;89.00;;;;;;2083267;28;20053;-96
2021/09/04 06:42:37;;;;;;;18.90;11.73;;;14.20;89.00;;;;;;2064772;28;20030;-94
2021/09/04 06:43:56;;;;;;;17.27;11.55;;;14.20;89.00;;;;;;2079966;28;20013;-96
2021/09/04 06:45:15;;;;;;;20.58;12.38;;;14.20;89.10;;;;;;2074463;28;20038;-87
2021/09/04 06:47:44;;;;;;;16.67;12.05;;;14.20;88.50;;;;;;2122043;27;20370;-95
2021/09/04 06:49:04;;;;;;;18.55;12.18;;;14.20;89.00;;;;;;2099141;28;20527;-95